sensor_id;sensor_type;location;lat;lon;timestamp;P1;durP1;ratioP1;P2;durP2;ratioP2
10491;SDS011;5293;51.464;-2.566;2023-06-04T00:00:46;5.03;;;2.60;;
10491;SDS011;5293;51.464;-2.566;2023-06-04T00:03:12;7.73;;;2.77;;
10491;SDS011;5293;51.464;-2.566;2023-06-04T00:05:37;9.43;;;3.10;;
10491;SDS011;5293;51.464;-2.566;2023-06-04T00:08:03;6.57;;;3.07;;
10491;SDS011;5293;51.464;-2.566;2023-06-04T00:10:29;7.57;;;2.90;;
10491;SDS011;5293;51.464;-2.566;2023-06-04T00:12:56;4.33;;;3.10;;
10491;SDS011;5293;51.464;-2.566;2023-06-04T00:15:21;9.33;;;3.20;;
10491;SDS011;5293;51.464;-2.566;2023-06-04T00:17:47;8.33;;;3.00;;
10491;SDS011;5293;51.464;-2.566;2023-06-04T00:20:13;10.00;;;3.30;;
10491;SDS011;5293;51.464;-2.566;2023-06-04T00:22:39;7.80;;;3.50;;
10491;SDS011;5293;51.464;-2.566;2023-06-04T00:25:06;8.23;;;2.87;;
10491;SDS011;5293;51.464;-2.566;2023-06-04T00:27:33;10.47;;;3.70;;
10491;SDS011;5293;51.464;-2.566;2023-06-04T00:29:59;7.23;;;3.37;;
10491;SDS011;5293;51.464;-2.566;2023-06-04T00:32:25;7.37;;;3.07;;
10491;SDS011;5293;51.464;-2.566;2023-06-04T00:34:54;7.00;;;2.93;;
10491;SDS011;5293;51.464;-2.566;2023-06-04T00:37:23;6.23;;;3.27;;
10491;SDS011;5293;51.464;-2.566;2023-06-04T00:39:50;6.87;;;3.33;;
10491;SDS011;5293;51.464;-2.566;2023-06-04T00:42:16;7.70;;;3.20;;
10491;SDS011;5293;51.464;-2.566;2023-06-04T00:44:42;9.37;;;3.33;;
10491;SDS011;5293;51.464;-2.566;2023-06-04T00:47:15;6.77;;;3.17;;
10491;SDS011;5293;51.464;-2.566;2023-06-04T00:49:43;5.57;;;3.00;;
10491;SDS011;5293;51.464;-2.566;2023-06-04T00:52:10;6.93;;;3.60;;
10491;SDS011;5293;51.464;-2.566;2023-06-04T00:54:38;6.07;;;3.40;;
10491;SDS011;5293;51.464;-2.566;2023-06-04T00:57:05;7.27;;;3.33;;
10491;SDS011;5293;51.464;-2.566;2023-06-04T00:59:32;9.80;;;3.63;;
10491;SDS011;5293;51.464;-2.566;2023-06-04T01:02:00;8.50;;;4.27;;
10491;SDS011;5293;51.464;-2.566;2023-06-04T01:07:15;10.07;;;4.40;;
10491;SDS011;5293;51.464;-2.566;2023-06-04T01:09:43;10.10;;;3.40;;
10491;SDS011;5293;51.464;-2.566;2023-06-04T01:12:10;9.40;;;3.43;;
10491;SDS011;5293;51.464;-2.566;2023-06-04T01:14:36;7.03;;;3.57;;
10491;SDS011;5293;51.464;-2.566;2023-06-04T01:17:07;9.87;;;3.63;;
10491;SDS011;5293;51.464;-2.566;2023-06-04T01:20:03;7.37;;;3.17;;
10491;SDS011;5293;51.464;-2.566;2023-06-04T01:25:24;7.33;;;3.60;;
10491;SDS011;5293;51.464;-2.566;2023-06-04T01:28:15;9.83;;;3.63;;
10491;SDS011;5293;51.464;-2.566;2023-06-04T01:30:43;14.97;;;5.50;;
10491;SDS011;5293;51.464;-2.566;2023-06-04T01:33:15;12.10;;;4.07;;
10491;SDS011;5293;51.464;-2.566;2023-06-04T01:35:42;7.47;;;3.07;;
10491;SDS011;5293;51.464;-2.566;2023-06-04T01:38:09;9.83;;;3.77;;
10491;SDS011;5293;51.464;-2.566;2023-06-04T01:40:35;16.63;;;4.20;;
10491;SDS011;5293;51.464;-2.566;2023-06-04T01:43:01;13.13;;;5.10;;
10491;SDS011;5293;51.464;-2.566;2023-06-04T01:45:27;9.27;;;3.30;;
10491;SDS011;5293;51.464;-2.566;2023-06-04T01:47:53;7.90;;;2.80;;
10491;SDS011;5293;51.464;-2.566;2023-06-04T01:50:20;8.43;;;3.53;;
10491;SDS011;5293;51.464;-2.566;2023-06-04T01:52:45;5.57;;;3.43;;
10491;SDS011;5293;51.464;-2.566;2023-06-04T01:55:13;8.47;;;3.30;;
10491;SDS011;5293;51.464;-2.566;2023-06-04T01:57:43;9.30;;;2.90;;
10491;SDS011;5293;51.464;-2.566;2023-06-04T02:00:09;7.30;;;3.07;;
10491;SDS011;5293;51.464;-2.566;2023-06-04T02:02:36;8.63;;;3.23;;
10491;SDS011;5293;51.464;-2.566;2023-06-04T02:05:03;8.17;;;3.40;;
10491;SDS011;5293;51.464;-2.566;2023-06-04T02:07:32;8.70;;;3.50;;
10491;SDS011;5293;51.464;-2.566;2023-06-04T02:10:08;14.57;;;3.20;;
10491;SDS011;5293;51.464;-2.566;2023-06-04T02:12:38;12.47;;;3.30;;
10491;SDS011;5293;51.464;-2.566;2023-06-04T02:15:06;11.50;;;3.33;;
10491;SDS011;5293;51.464;-2.566;2023-06-04T02:17:35;10.87;;;2.63;;
10491;SDS011;5293;51.464;-2.566;2023-06-04T02:20:05;11.10;;;3.13;;
10491;SDS011;5293;51.464;-2.566;2023-06-04T02:22:31;8.27;;;3.13;;
10491;SDS011;5293;51.464;-2.566;2023-06-04T02:24:57;6.47;;;3.00;;
10491;SDS011;5293;51.464;-2.566;2023-06-04T02:27:22;7.87;;;2.77;;
10491;SDS011;5293;51.464;-2.566;2023-06-04T02:29:48;12.27;;;3.90;;
10491;SDS011;5293;51.464;-2.566;2023-06-04T02:32:13;6.30;;;2.47;;
10491;SDS011;5293;51.464;-2.566;2023-06-04T02:34:39;8.63;;;2.77;;
10491;SDS011;5293;51.464;-2.566;2023-06-04T02:37:05;7.83;;;3.00;;
10491;SDS011;5293;51.464;-2.566;2023-06-04T02:39:31;8.03;;;3.27;;
10491;SDS011;5293;51.464;-2.566;2023-06-04T02:41:56;9.27;;;3.57;;
10491;SDS011;5293;51.464;-2.566;2023-06-04T02:44:22;8.60;;;3.37;;
10491;SDS011;5293;51.464;-2.566;2023-06-04T02:46:48;7.77;;;2.93;;
10491;SDS011;5293;51.464;-2.566;2023-06-04T02:49:13;5.17;;;2.80;;
10491;SDS011;5293;51.464;-2.566;2023-06-04T02:51:40;9.43;;;4.23;;
10491;SDS011;5293;51.464;-2.566;2023-06-04T02:54:06;7.07;;;3.17;;
10491;SDS011;5293;51.464;-2.566;2023-06-04T02:56:31;11.27;;;3.10;;
10491;SDS011;5293;51.464;-2.566;2023-06-04T02:58:58;4.30;;;3.10;;
10491;SDS011;5293;51.464;-2.566;2023-06-04T03:01:24;8.23;;;2.60;;
10491;SDS011;5293;51.464;-2.566;2023-06-04T03:03:51;7.93;;;3.63;;
10491;SDS011;5293;51.464;-2.566;2023-06-04T03:06:18;7.37;;;2.97;;
10491;SDS011;5293;51.464;-2.566;2023-06-04T03:08:46;9.53;;;3.10;;
10491;SDS011;5293;51.464;-2.566;2023-06-04T03:11:13;9.00;;;3.00;;
10491;SDS011;5293;51.464;-2.566;2023-06-04T03:13:39;6.20;;;3.10;;
10491;SDS011;5293;51.464;-2.566;2023-06-04T03:16:05;5.67;;;3.20;;
10491;SDS011;5293;51.464;-2.566;2023-06-04T03:18:37;8.23;;;3.53;;
10491;SDS011;5293;51.464;-2.566;2023-06-04T03:21:04;9.90;;;3.00;;
10491;SDS011;5293;51.464;-2.566;2023-06-04T03:23:30;5.97;;;2.90;;
10491;SDS011;5293;51.464;-2.566;2023-06-04T03:25:57;8.97;;;2.70;;
10491;SDS011;5293;51.464;-2.566;2023-06-04T03:28:22;9.23;;;2.77;;
10491;SDS011;5293;51.464;-2.566;2023-06-04T03:30:48;5.10;;;2.57;;
10491;SDS011;5293;51.464;-2.566;2023-06-04T03:33:14;6.67;;;2.87;;
10491;SDS011;5293;51.464;-2.566;2023-06-04T03:35:40;5.93;;;3.00;;
10491;SDS011;5293;51.464;-2.566;2023-06-04T03:38:06;11.90;;;3.47;;
10491;SDS011;5293;51.464;-2.566;2023-06-04T03:40:32;7.60;;;2.97;;
10491;SDS011;5293;51.464;-2.566;2023-06-04T03:42:57;7.43;;;3.20;;
10491;SDS011;5293;51.464;-2.566;2023-06-04T03:45:23;12.27;;;2.57;;
10491;SDS011;5293;51.464;-2.566;2023-06-04T03:47:49;9.70;;;3.00;;
10491;SDS011;5293;51.464;-2.566;2023-06-04T03:50:14;10.67;;;2.70;;
10491;SDS011;5293;51.464;-2.566;2023-06-04T03:52:40;11.23;;;3.13;;
10491;SDS011;5293;51.464;-2.566;2023-06-04T03:55:06;6.00;;;3.03;;
10491;SDS011;5293;51.464;-2.566;2023-06-04T03:57:32;7.67;;;3.00;;
10491;SDS011;5293;51.464;-2.566;2023-06-04T03:59:57;7.87;;;3.10;;
10491;SDS011;5293;51.464;-2.566;2023-06-04T04:02:23;9.00;;;3.20;;
10491;SDS011;5293;51.464;-2.566;2023-06-04T04:04:49;9.30;;;2.73;;
10491;SDS011;5293;51.464;-2.566;2023-06-04T04:07:15;7.73;;;2.93;;
10491;SDS011;5293;51.464;-2.566;2023-06-04T04:09:41;7.00;;;2.67;;
10491;SDS011;5293;51.464;-2.566;2023-06-04T04:12:06;6.33;;;3.10;;
10491;SDS011;5293;51.464;-2.566;2023-06-04T04:14:32;4.23;;;2.53;;
10491;SDS011;5293;51.464;-2.566;2023-06-04T04:16:58;6.47;;;2.73;;
10491;SDS011;5293;51.464;-2.566;2023-06-04T04:19:24;9.43;;;3.00;;
10491;SDS011;5293;51.464;-2.566;2023-06-04T04:21:50;6.20;;;2.93;;
10491;SDS011;5293;51.464;-2.566;2023-06-04T04:24:26;5.10;;;3.03;;
10491;SDS011;5293;51.464;-2.566;2023-06-04T04:26:53;4.67;;;2.90;;
10491;SDS011;5293;51.464;-2.566;2023-06-04T04:29:22;5.67;;;2.83;;
10491;SDS011;5293;51.464;-2.566;2023-06-04T04:31:50;6.30;;;2.90;;
10491;SDS011;5293;51.464;-2.566;2023-06-04T04:34:16;8.80;;;3.57;;
10491;SDS011;5293;51.464;-2.566;2023-06-04T04:36:42;4.90;;;3.03;;
10491;SDS011;5293;51.464;-2.566;2023-06-04T04:39:09;5.77;;;3.07;;
10491;SDS011;5293;51.464;-2.566;2023-06-04T04:41:36;4.90;;;3.47;;
10491;SDS011;5293;51.464;-2.566;2023-06-04T04:44:02;5.93;;;3.17;;
10491;SDS011;5293;51.464;-2.566;2023-06-04T04:46:29;5.57;;;3.33;;
10491;SDS011;5293;51.464;-2.566;2023-06-04T04:48:55;9.13;;;3.73;;
10491;SDS011;5293;51.464;-2.566;2023-06-04T04:51:21;6.93;;;3.50;;
10491;SDS011;5293;51.464;-2.566;2023-06-04T04:53:47;9.43;;;3.67;;
10491;SDS011;5293;51.464;-2.566;2023-06-04T04:56:12;7.37;;;3.53;;
10491;SDS011;5293;51.464;-2.566;2023-06-04T04:58:38;6.37;;;3.40;;
10491;SDS011;5293;51.464;-2.566;2023-06-04T05:01:04;7.73;;;3.63;;
10491;SDS011;5293;51.464;-2.566;2023-06-04T05:03:30;6.40;;;3.30;;
10491;SDS011;5293;51.464;-2.566;2023-06-04T05:05:55;6.70;;;3.70;;
10491;SDS011;5293;51.464;-2.566;2023-06-04T05:08:21;6.83;;;2.90;;
10491;SDS011;5293;51.464;-2.566;2023-06-04T05:10:47;6.60;;;3.03;;
10491;SDS011;5293;51.464;-2.566;2023-06-04T05:13:12;7.03;;;4.03;;
10491;SDS011;5293;51.464;-2.566;2023-06-04T05:15:38;7.03;;;3.27;;
10491;SDS011;5293;51.464;-2.566;2023-06-04T05:18:07;5.77;;;3.57;;
10491;SDS011;5293;51.464;-2.566;2023-06-04T05:20:33;6.80;;;3.83;;
10491;SDS011;5293;51.464;-2.566;2023-06-04T05:23:02;8.70;;;3.43;;
10491;SDS011;5293;51.464;-2.566;2023-06-04T05:25:29;8.77;;;3.83;;
10491;SDS011;5293;51.464;-2.566;2023-06-04T05:27:56;6.63;;;3.93;;
10491;SDS011;5293;51.464;-2.566;2023-06-04T05:30:21;10.80;;;4.00;;
10491;SDS011;5293;51.464;-2.566;2023-06-04T05:32:47;8.30;;;3.13;;
10491;SDS011;5293;51.464;-2.566;2023-06-04T05:35:15;8.53;;;3.33;;
10491;SDS011;5293;51.464;-2.566;2023-06-04T05:37:41;7.80;;;3.97;;
10491;SDS011;5293;51.464;-2.566;2023-06-04T05:40:07;12.43;;;3.47;;
10491;SDS011;5293;51.464;-2.566;2023-06-04T05:42:34;6.00;;;3.30;;
10491;SDS011;5293;51.464;-2.566;2023-06-04T05:45:00;5.37;;;3.43;;
10491;SDS011;5293;51.464;-2.566;2023-06-04T05:47:27;7.43;;;3.27;;
10491;SDS011;5293;51.464;-2.566;2023-06-04T05:49:56;8.57;;;3.90;;
10491;SDS011;5293;51.464;-2.566;2023-06-04T05:52:22;10.80;;;3.70;;
10491;SDS011;5293;51.464;-2.566;2023-06-04T05:54:48;10.27;;;3.23;;
10491;SDS011;5293;51.464;-2.566;2023-06-04T05:57:14;8.73;;;3.77;;
10491;SDS011;5293;51.464;-2.566;2023-06-04T05:59:40;8.43;;;3.50;;
10491;SDS011;5293;51.464;-2.566;2023-06-04T06:02:05;6.27;;;3.70;;
10491;SDS011;5293;51.464;-2.566;2023-06-04T06:04:32;6.70;;;3.50;;
10491;SDS011;5293;51.464;-2.566;2023-06-04T06:06:58;8.93;;;3.73;;
10491;SDS011;5293;51.464;-2.566;2023-06-04T06:09:23;9.90;;;3.90;;
10491;SDS011;5293;51.464;-2.566;2023-06-04T06:11:49;9.70;;;3.70;;
10491;SDS011;5293;51.464;-2.566;2023-06-04T06:14:14;8.77;;;3.57;;
10491;SDS011;5293;51.464;-2.566;2023-06-04T06:16:40;5.70;;;3.37;;
10491;SDS011;5293;51.464;-2.566;2023-06-04T06:19:06;7.57;;;3.50;;
10491;SDS011;5293;51.464;-2.566;2023-06-04T06:21:32;9.80;;;4.77;;
10491;SDS011;5293;51.464;-2.566;2023-06-04T06:23:57;10.17;;;3.87;;
10491;SDS011;5293;51.464;-2.566;2023-06-04T06:26:23;8.73;;;3.80;;
10491;SDS011;5293;51.464;-2.566;2023-06-04T06:28:50;9.13;;;4.27;;
10491;SDS011;5293;51.464;-2.566;2023-06-04T06:31:15;8.63;;;3.80;;
10491;SDS011;5293;51.464;-2.566;2023-06-04T06:33:41;8.57;;;3.80;;
10491;SDS011;5293;51.464;-2.566;2023-06-04T06:36:07;6.53;;;3.70;;
10491;SDS011;5293;51.464;-2.566;2023-06-04T06:38:35;11.63;;;4.10;;
10491;SDS011;5293;51.464;-2.566;2023-06-04T06:41:00;6.77;;;3.37;;
10491;SDS011;5293;51.464;-2.566;2023-06-04T06:43:26;5.97;;;4.00;;
10491;SDS011;5293;51.464;-2.566;2023-06-04T06:45:51;9.10;;;4.03;;
10491;SDS011;5293;51.464;-2.566;2023-06-04T06:48:17;6.47;;;3.57;;
10491;SDS011;5293;51.464;-2.566;2023-06-04T06:50:43;6.40;;;3.53;;
10491;SDS011;5293;51.464;-2.566;2023-06-04T06:53:08;8.77;;;4.30;;
10491;SDS011;5293;51.464;-2.566;2023-06-04T06:55:34;6.13;;;3.40;;
10491;SDS011;5293;51.464;-2.566;2023-06-04T06:57:59;6.10;;;3.60;;
10491;SDS011;5293;51.464;-2.566;2023-06-04T07:00:26;7.67;;;3.17;;
10491;SDS011;5293;51.464;-2.566;2023-06-04T07:02:53;11.70;;;3.80;;
10491;SDS011;5293;51.464;-2.566;2023-06-04T07:05:19;7.30;;;3.50;;
10491;SDS011;5293;51.464;-2.566;2023-06-04T07:07:44;9.33;;;3.80;;
10491;SDS011;5293;51.464;-2.566;2023-06-04T07:10:11;6.40;;;3.27;;
10491;SDS011;5293;51.464;-2.566;2023-06-04T07:12:38;4.87;;;3.10;;
10491;SDS011;5293;51.464;-2.566;2023-06-04T07:15:04;7.87;;;3.43;;
10491;SDS011;5293;51.464;-2.566;2023-06-04T07:17:31;8.13;;;3.47;;
10491;SDS011;5293;51.464;-2.566;2023-06-04T07:19:57;4.77;;;3.20;;
10491;SDS011;5293;51.464;-2.566;2023-06-04T07:22:23;6.07;;;3.60;;
10491;SDS011;5293;51.464;-2.566;2023-06-04T07:24:48;11.90;;;5.00;;
10491;SDS011;5293;51.464;-2.566;2023-06-04T07:27:15;7.10;;;3.30;;
10491;SDS011;5293;51.464;-2.566;2023-06-04T07:29:42;6.77;;;3.43;;
10491;SDS011;5293;51.464;-2.566;2023-06-04T07:32:09;8.83;;;3.50;;
10491;SDS011;5293;51.464;-2.566;2023-06-04T07:34:35;4.90;;;2.70;;
10491;SDS011;5293;51.464;-2.566;2023-06-04T07:37:02;7.37;;;3.17;;
10491;SDS011;5293;51.464;-2.566;2023-06-04T07:39:28;8.50;;;2.97;;
10491;SDS011;5293;51.464;-2.566;2023-06-04T07:41:54;8.83;;;3.13;;
10491;SDS011;5293;51.464;-2.566;2023-06-04T07:44:20;5.40;;;2.83;;
10491;SDS011;5293;51.464;-2.566;2023-06-04T07:46:45;6.40;;;3.00;;
10491;SDS011;5293;51.464;-2.566;2023-06-04T07:49:11;5.70;;;2.40;;
10491;SDS011;5293;51.464;-2.566;2023-06-04T07:51:37;7.23;;;2.87;;
10491;SDS011;5293;51.464;-2.566;2023-06-04T07:54:02;5.00;;;2.80;;
10491;SDS011;5293;51.464;-2.566;2023-06-04T07:56:28;7.63;;;3.17;;
10491;SDS011;5293;51.464;-2.566;2023-06-04T07:58:54;10.33;;;3.03;;
10491;SDS011;5293;51.464;-2.566;2023-06-04T08:01:20;7.27;;;3.10;;
10491;SDS011;5293;51.464;-2.566;2023-06-04T08:03:46;5.33;;;2.90;;
10491;SDS011;5293;51.464;-2.566;2023-06-04T08:06:12;6.33;;;2.97;;
10491;SDS011;5293;51.464;-2.566;2023-06-04T08:08:42;4.97;;;2.77;;
10491;SDS011;5293;51.464;-2.566;2023-06-04T08:11:10;7.47;;;2.93;;
10491;SDS011;5293;51.464;-2.566;2023-06-04T08:13:39;5.57;;;2.83;;
10491;SDS011;5293;51.464;-2.566;2023-06-04T08:16:05;7.17;;;2.50;;
10491;SDS011;5293;51.464;-2.566;2023-06-04T08:18:31;4.27;;;2.67;;
10491;SDS011;5293;51.464;-2.566;2023-06-04T08:20:56;3.67;;;2.37;;
10491;SDS011;5293;51.464;-2.566;2023-06-04T08:23:22;6.37;;;2.77;;
10491;SDS011;5293;51.464;-2.566;2023-06-04T08:25:48;8.67;;;3.33;;
10491;SDS011;5293;51.464;-2.566;2023-06-04T08:28:14;4.50;;;2.77;;
10491;SDS011;5293;51.464;-2.566;2023-06-04T08:30:42;5.87;;;2.93;;
10491;SDS011;5293;51.464;-2.566;2023-06-04T08:33:07;4.33;;;2.67;;
10491;SDS011;5293;51.464;-2.566;2023-06-04T08:35:33;5.13;;;2.73;;
10491;SDS011;5293;51.464;-2.566;2023-06-04T08:37:59;6.20;;;2.80;;
10491;SDS011;5293;51.464;-2.566;2023-06-04T08:40:25;4.37;;;2.90;;
10491;SDS011;5293;51.464;-2.566;2023-06-04T08:42:51;6.30;;;3.37;;
10491;SDS011;5293;51.464;-2.566;2023-06-04T08:45:23;7.30;;;2.77;;
10491;SDS011;5293;51.464;-2.566;2023-06-04T08:47:49;4.83;;;2.97;;
10491;SDS011;5293;51.464;-2.566;2023-06-04T08:50:22;2.93;;;2.47;;
10491;SDS011;5293;51.464;-2.566;2023-06-04T08:52:55;3.03;;;2.40;;
10491;SDS011;5293;51.464;-2.566;2023-06-04T08:55:21;2.93;;;2.20;;
10491;SDS011;5293;51.464;-2.566;2023-06-04T08:57:49;3.43;;;2.13;;
10491;SDS011;5293;51.464;-2.566;2023-06-04T09:00:17;5.00;;;2.60;;
10491;SDS011;5293;51.464;-2.566;2023-06-04T09:02:44;5.00;;;2.23;;
10491;SDS011;5293;51.464;-2.566;2023-06-04T09:05:11;4.73;;;2.30;;
10491;SDS011;5293;51.464;-2.566;2023-06-04T09:07:45;7.50;;;3.30;;
10491;SDS011;5293;51.464;-2.566;2023-06-04T09:10:12;5.17;;;2.20;;
10491;SDS011;5293;51.464;-2.566;2023-06-04T09:12:43;4.57;;;2.00;;
10491;SDS011;5293;51.464;-2.566;2023-06-04T09:15:11;3.93;;;1.80;;
10491;SDS011;5293;51.464;-2.566;2023-06-04T09:17:36;3.77;;;1.80;;
10491;SDS011;5293;51.464;-2.566;2023-06-04T09:20:02;4.30;;;1.73;;
10491;SDS011;5293;51.464;-2.566;2023-06-04T09:22:35;2.17;;;1.60;;
10491;SDS011;5293;51.464;-2.566;2023-06-04T09:25:03;2.37;;;1.20;;
10491;SDS011;5293;51.464;-2.566;2023-06-04T09:27:37;1.77;;;1.40;;
10491;SDS011;5293;51.464;-2.566;2023-06-04T09:30:05;4.10;;;1.43;;
10491;SDS011;5293;51.464;-2.566;2023-06-04T09:32:31;3.17;;;1.50;;
10491;SDS011;5293;51.464;-2.566;2023-06-04T09:35:07;2.27;;;1.50;;
10491;SDS011;5293;51.464;-2.566;2023-06-04T09:37:41;4.07;;;1.60;;
10491;SDS011;5293;51.464;-2.566;2023-06-04T09:40:09;2.73;;;1.57;;
10491;SDS011;5293;51.464;-2.566;2023-06-04T09:42:44;3.40;;;1.20;;
10491;SDS011;5293;51.464;-2.566;2023-06-04T09:45:11;2.17;;;1.30;;
10491;SDS011;5293;51.464;-2.566;2023-06-04T09:47:43;3.53;;;1.80;;
10491;SDS011;5293;51.464;-2.566;2023-06-04T09:50:12;5.23;;;1.70;;
10491;SDS011;5293;51.464;-2.566;2023-06-04T09:52:38;3.10;;;1.40;;
10491;SDS011;5293;51.464;-2.566;2023-06-04T09:55:26;4.20;;;1.73;;
10491;SDS011;5293;51.464;-2.566;2023-06-04T09:57:51;3.03;;;1.60;;
10491;SDS011;5293;51.464;-2.566;2023-06-04T10:00:21;4.83;;;1.50;;
10491;SDS011;5293;51.464;-2.566;2023-06-04T10:02:49;3.00;;;1.50;;
10491;SDS011;5293;51.464;-2.566;2023-06-04T10:05:16;3.60;;;1.90;;
10491;SDS011;5293;51.464;-2.566;2023-06-04T10:07:45;2.33;;;1.70;;
10491;SDS011;5293;51.464;-2.566;2023-06-04T10:10:14;4.50;;;1.80;;
10491;SDS011;5293;51.464;-2.566;2023-06-04T10:12:49;2.93;;;2.00;;
10491;SDS011;5293;51.464;-2.566;2023-06-04T10:15:19;5.10;;;1.80;;
10491;SDS011;5293;51.464;-2.566;2023-06-04T10:17:46;3.23;;;1.40;;
10491;SDS011;5293;51.464;-2.566;2023-06-04T10:20:13;2.33;;;1.30;;
10491;SDS011;5293;51.464;-2.566;2023-06-04T10:22:39;2.97;;;1.43;;
10491;SDS011;5293;51.464;-2.566;2023-06-04T10:25:06;2.53;;;1.33;;
10491;SDS011;5293;51.464;-2.566;2023-06-04T10:27:33;6.50;;;2.00;;
10491;SDS011;5293;51.464;-2.566;2023-06-04T10:30:01;4.20;;;1.50;;
10491;SDS011;5293;51.464;-2.566;2023-06-04T10:32:28;4.43;;;2.00;;
10491;SDS011;5293;51.464;-2.566;2023-06-04T10:34:54;3.77;;;1.53;;
10491;SDS011;5293;51.464;-2.566;2023-06-04T10:37:22;4.13;;;1.50;;
10491;SDS011;5293;51.464;-2.566;2023-06-04T10:39:52;4.50;;;1.60;;
10491;SDS011;5293;51.464;-2.566;2023-06-04T10:42:18;4.33;;;1.70;;
10491;SDS011;5293;51.464;-2.566;2023-06-04T10:44:52;3.43;;;1.60;;
10491;SDS011;5293;51.464;-2.566;2023-06-04T10:49:46;4.67;;;1.90;;
10491;SDS011;5293;51.464;-2.566;2023-06-04T10:52:13;2.80;;;1.77;;
10491;SDS011;5293;51.464;-2.566;2023-06-04T10:54:38;3.43;;;1.50;;
10491;SDS011;5293;51.464;-2.566;2023-06-04T10:59:57;1.30;;;1.20;;
10491;SDS011;5293;51.464;-2.566;2023-06-04T11:02:24;2.43;;;1.47;;
10491;SDS011;5293;51.464;-2.566;2023-06-04T11:05:03;2.80;;;1.30;;
10491;SDS011;5293;51.464;-2.566;2023-06-04T11:07:44;3.23;;;1.20;;
10491;SDS011;5293;51.464;-2.566;2023-06-04T11:10:12;2.30;;;1.40;;
10491;SDS011;5293;51.464;-2.566;2023-06-04T11:12:48;2.83;;;1.40;;
10491;SDS011;5293;51.464;-2.566;2023-06-04T11:15:18;6.07;;;1.80;;
10491;SDS011;5293;51.464;-2.566;2023-06-04T11:17:54;4.20;;;1.07;;
10491;SDS011;5293;51.464;-2.566;2023-06-04T11:20:23;3.00;;;1.67;;
10491;SDS011;5293;51.464;-2.566;2023-06-04T11:22:52;3.77;;;1.63;;
10491;SDS011;5293;51.464;-2.566;2023-06-04T11:25:19;1.87;;;1.00;;
10491;SDS011;5293;51.464;-2.566;2023-06-04T11:27:47;3.63;;;1.17;;
10491;SDS011;5293;51.464;-2.566;2023-06-04T11:30:13;3.17;;;1.00;;
10491;SDS011;5293;51.464;-2.566;2023-06-04T11:32:40;1.60;;;1.00;;
10491;SDS011;5293;51.464;-2.566;2023-06-04T11:35:06;2.13;;;1.10;;
10491;SDS011;5293;51.464;-2.566;2023-06-04T11:37:32;4.83;;;1.50;;
10491;SDS011;5293;51.464;-2.566;2023-06-04T11:39:58;3.57;;;1.23;;
10491;SDS011;5293;51.464;-2.566;2023-06-04T11:42:27;3.17;;;1.20;;
10491;SDS011;5293;51.464;-2.566;2023-06-04T11:44:55;3.83;;;1.30;;
10491;SDS011;5293;51.464;-2.566;2023-06-04T11:47:21;4.13;;;1.00;;
10491;SDS011;5293;51.464;-2.566;2023-06-04T11:49:47;1.17;;;0.90;;
10491;SDS011;5293;51.464;-2.566;2023-06-04T11:52:13;4.13;;;1.40;;
10491;SDS011;5293;51.464;-2.566;2023-06-04T11:54:39;3.67;;;1.47;;
10491;SDS011;5293;51.464;-2.566;2023-06-04T11:57:05;1.57;;;1.13;;
10491;SDS011;5293;51.464;-2.566;2023-06-04T11:59:31;1.90;;;1.20;;
10491;SDS011;5293;51.464;-2.566;2023-06-04T12:01:57;4.80;;;1.60;;
10491;SDS011;5293;51.464;-2.566;2023-06-04T12:04:23;4.20;;;1.50;;
10491;SDS011;5293;51.464;-2.566;2023-06-04T12:06:55;2.77;;;1.20;;
10491;SDS011;5293;51.464;-2.566;2023-06-04T12:09:23;3.67;;;1.10;;
10491;SDS011;5293;51.464;-2.566;2023-06-04T12:11:57;2.30;;;1.40;;
10491;SDS011;5293;51.464;-2.566;2023-06-04T12:14:26;3.60;;;1.47;;
10491;SDS011;5293;51.464;-2.566;2023-06-04T12:16:56;2.00;;;1.00;;
10491;SDS011;5293;51.464;-2.566;2023-06-04T12:19:23;2.63;;;1.23;;
10491;SDS011;5293;51.464;-2.566;2023-06-04T12:22:05;2.43;;;1.43;;
10491;SDS011;5293;51.464;-2.566;2023-06-04T12:24:32;2.80;;;1.20;;
10491;SDS011;5293;51.464;-2.566;2023-06-04T12:27:03;3.90;;;1.57;;
10491;SDS011;5293;51.464;-2.566;2023-06-04T12:29:34;3.30;;;1.67;;
10491;SDS011;5293;51.464;-2.566;2023-06-04T12:32:04;1.30;;;1.20;;
10491;SDS011;5293;51.464;-2.566;2023-06-04T12:34:37;6.50;;;1.40;;
10491;SDS011;5293;51.464;-2.566;2023-06-04T12:37:03;2.93;;;1.50;;
10491;SDS011;5293;51.464;-2.566;2023-06-04T12:39:31;2.50;;;1.50;;
10491;SDS011;5293;51.464;-2.566;2023-06-04T12:41:58;4.27;;;1.33;;
10491;SDS011;5293;51.464;-2.566;2023-06-04T12:44:23;1.30;;;1.03;;
10491;SDS011;5293;51.464;-2.566;2023-06-04T12:46:49;1.20;;;1.10;;
10491;SDS011;5293;51.464;-2.566;2023-06-04T12:49:15;4.10;;;1.43;;
10491;SDS011;5293;51.464;-2.566;2023-06-04T12:51:41;4.70;;;1.63;;
10491;SDS011;5293;51.464;-2.566;2023-06-04T12:54:07;2.07;;;1.40;;
10491;SDS011;5293;51.464;-2.566;2023-06-04T12:56:32;4.40;;;1.37;;
10491;SDS011;5293;51.464;-2.566;2023-06-04T12:58:58;3.77;;;1.40;;
10491;SDS011;5293;51.464;-2.566;2023-06-04T13:01:24;3.43;;;1.30;;
10491;SDS011;5293;51.464;-2.566;2023-06-04T13:03:50;2.47;;;1.20;;
10491;SDS011;5293;51.464;-2.566;2023-06-04T13:06:15;2.00;;;1.50;;
10491;SDS011;5293;51.464;-2.566;2023-06-04T13:08:41;2.40;;;1.37;;
10491;SDS011;5293;51.464;-2.566;2023-06-04T13:11:08;2.33;;;1.40;;
10491;SDS011;5293;51.464;-2.566;2023-06-04T13:13:34;3.37;;;1.20;;
10491;SDS011;5293;51.464;-2.566;2023-06-04T13:16:02;5.93;;;1.57;;
10491;SDS011;5293;51.464;-2.566;2023-06-04T13:18:28;4.13;;;1.37;;
10491;SDS011;5293;51.464;-2.566;2023-06-04T13:20:53;3.60;;;1.87;;
10491;SDS011;5293;51.464;-2.566;2023-06-04T13:23:19;2.63;;;1.63;;
10491;SDS011;5293;51.464;-2.566;2023-06-04T13:25:47;2.90;;;1.80;;
10491;SDS011;5293;51.464;-2.566;2023-06-04T13:28:12;2.23;;;1.20;;
10491;SDS011;5293;51.464;-2.566;2023-06-04T13:30:38;2.37;;;1.20;;
10491;SDS011;5293;51.464;-2.566;2023-06-04T13:33:04;3.53;;;1.53;;
10491;SDS011;5293;51.464;-2.566;2023-06-04T13:35:31;3.67;;;1.40;;
10491;SDS011;5293;51.464;-2.566;2023-06-04T13:37:56;3.27;;;1.70;;
10491;SDS011;5293;51.464;-2.566;2023-06-04T13:40:22;2.00;;;1.23;;
10491;SDS011;5293;51.464;-2.566;2023-06-04T13:42:48;1.73;;;1.40;;
10491;SDS011;5293;51.464;-2.566;2023-06-04T13:45:14;2.10;;;1.30;;
10491;SDS011;5293;51.464;-2.566;2023-06-04T13:47:41;2.23;;;1.40;;
10491;SDS011;5293;51.464;-2.566;2023-06-04T13:50:07;4.40;;;1.70;;
10491;SDS011;5293;51.464;-2.566;2023-06-04T13:52:33;1.57;;;1.30;;
10491;SDS011;5293;51.464;-2.566;2023-06-04T13:54:59;1.33;;;1.23;;
10491;SDS011;5293;51.464;-2.566;2023-06-04T13:57:25;2.60;;;1.80;;
10491;SDS011;5293;51.464;-2.566;2023-06-04T13:59:52;3.07;;;1.20;;
10491;SDS011;5293;51.464;-2.566;2023-06-04T14:02:18;3.13;;;1.73;;
10491;SDS011;5293;51.464;-2.566;2023-06-04T14:04:44;2.57;;;1.23;;
10491;SDS011;5293;51.464;-2.566;2023-06-04T14:07:10;2.80;;;1.60;;
10491;SDS011;5293;51.464;-2.566;2023-06-04T14:09:35;2.53;;;1.50;;
10491;SDS011;5293;51.464;-2.566;2023-06-04T14:12:01;3.43;;;1.83;;
10491;SDS011;5293;51.464;-2.566;2023-06-04T14:14:27;3.43;;;1.53;;
10491;SDS011;5293;51.464;-2.566;2023-06-04T14:17:01;2.17;;;1.60;;
10491;SDS011;5293;51.464;-2.566;2023-06-04T14:19:31;3.17;;;1.80;;
10491;SDS011;5293;51.464;-2.566;2023-06-04T14:21:57;1.97;;;1.60;;
10491;SDS011;5293;51.464;-2.566;2023-06-04T14:24:23;2.30;;;1.60;;
10491;SDS011;5293;51.464;-2.566;2023-06-04T14:26:49;4.27;;;1.87;;
10491;SDS011;5293;51.464;-2.566;2023-06-04T14:29:15;1.87;;;1.67;;
10491;SDS011;5293;51.464;-2.566;2023-06-04T14:31:40;1.73;;;1.30;;
10491;SDS011;5293;51.464;-2.566;2023-06-04T14:34:06;2.80;;;1.70;;
10491;SDS011;5293;51.464;-2.566;2023-06-04T14:36:33;4.13;;;2.00;;
10491;SDS011;5293;51.464;-2.566;2023-06-04T14:38:59;1.77;;;1.67;;
10491;SDS011;5293;51.464;-2.566;2023-06-04T14:41:25;2.07;;;1.30;;
10491;SDS011;5293;51.464;-2.566;2023-06-04T14:43:52;5.03;;;1.90;;
10491;SDS011;5293;51.464;-2.566;2023-06-04T14:46:17;3.33;;;1.80;;
10491;SDS011;5293;51.464;-2.566;2023-06-04T14:48:43;2.07;;;1.70;;
10491;SDS011;5293;51.464;-2.566;2023-06-04T14:51:09;2.13;;;1.80;;
10491;SDS011;5293;51.464;-2.566;2023-06-04T14:53:35;2.33;;;1.80;;
10491;SDS011;5293;51.464;-2.566;2023-06-04T14:56:04;1.87;;;1.50;;